Time;durP1;ratioP1;P1;durP2;ratioP2;P2;SDS_P1;SDS_P2;PMS_P1;PMS_P2;Temp;Humidity;BMP_temperature;BMP_pressure;BME280_temperature;BME280_humidity;BME280_pressure;Samples;Min_cycle;Max_cycle;Signal;HPM_P1;HPM_P2
2022/10/31 00:01:54;;;;;;;21.45;9.00;;;13.30;99.90;;;;;;4939543;29;20055;-64
2022/10/31 00:04:19;;;;;;;16.98;8.93;;;13.30;99.90;;;;;;4956498;29;20094;-64
2022/10/31 00:06:45;;;;;;;15.90;8.68;;;13.20;99.90;;;;;;4937131;29;20055;-64
2022/10/31 00:09:11;;;;;;;16.35;8.52;;;13.20;99.90;;;;;;4955461;29;20036;-64
2022/10/31 00:11:36;;;;;;;20.00;9.32;;;13.10;99.90;;;;;;4956290;29;20050;-64
2022/10/31 00:14:02;;;;;;;19.50;8.52;;;13.10;99.90;;;;;;4956359;29;20069;-64
2022/10/31 00:16:29;;;;;;;16.40;8.90;;;13.10;99.90;;;;;;4956400;29;20039;-64
2022/10/31 00:18:59;;;;;;;16.13;8.90;;;14.10;99.90;;;;;;4956731;29;20054;-64
2022/10/31 00:21:25;;;;;;;15.43;8.90;;;13.00;99.90;;;;;;4937984;29;20035;-65
2022/10/31 00:23:51;;;;;;;15.38;9.30;;;13.00;99.90;;;;;;4939070;29;20544;-63
2022/10/31 00:26:16;;;;;;;18.20;9.68;;;12.90;99.90;;;;;;4938825;29;20043;-63
2022/10/31 00:28:42;;;;;;;17.23;8.95;;;13.10;99.90;;;;;;4956143;29;20039;-64
2022/10/31 00:31:09;;;;;;;17.75;10.13;;;12.90;99.90;;;;;;4939086;29;20077;-63
2022/10/31 00:33:37;;;;;;;20.38;9.85;;;12.60;99.90;;;;;;4955743;29;20043;-64
2022/10/31 00:36:04;;;;;;;17.98;9.38;;;12.80;99.90;;;;;;4955185;29;20078;-64
2022/10/31 00:38:30;;;;;;;20.80;10.68;;;12.50;99.90;;;;;;4953507;29;20554;-64
2022/10/31 00:40:56;;;;;;;19.10;9.23;;;12.80;99.90;;;;;;4938609;29;20130;-64
2022/10/31 00:43:21;;;;;;;17.38;10.10;;;12.60;99.90;;;;;;4938856;29;20406;-65
2022/10/31 00:45:47;;;;;;;21.40;11.82;;;12.60;99.90;;;;;;4938831;29;20043;-64
2022/10/31 00:48:12;;;;;;;16.27;10.68;;;12.60;99.90;;;;;;4938622;29;20110;-64
2022/10/31 00:50:39;;;;;;;21.48;10.30;;;12.70;99.90;;;;;;4954361;28;20043;-64
2022/10/31 00:53:05;;;;;;;22.20;11.73;;;12.60;99.90;;;;;;4954786;29;20115;-64
2022/10/31 00:55:31;;;;;;;22.27;10.55;;;;;;;;;;4955484;29;20121;-64
2022/10/31 00:57:57;;;;;;;18.90;11.07;;;;;;;;;;4938417;29;20454;-64
2022/10/31 01:00:23;;;;;;;17.00;10.13;;;12.50;99.90;;;;;;4953931;29;20050;-64
2022/10/31 01:02:48;;;;;;;19.42;10.98;;;12.40;99.90;;;;;;4938321;29;20054;-64
2022/10/31 01:05:14;;;;;;;21.88;11.52;;;12.50;99.90;;;;;;4954995;29;20402;-64
2022/10/31 01:07:41;;;;;;;23.83;11.65;;;12.50;99.90;;;;;;4955145;29;20047;-64
2022/10/31 01:10:09;;;;;;;17.83;10.45;;;12.50;99.90;;;;;;4955870;29;20075;-64
2022/10/31 01:12:39;;;;;;;20.98;11.32;;;12.40;99.90;;;;;;4955291;29;20085;-64
2022/10/31 01:15:06;;;;;;;19.63;11.60;;;12.40;99.90;;;;;;4929535;29;20714;-65
2022/10/31 01:17:31;;;;;;;22.30;11.52;;;12.40;99.90;;;;;;4938217;29;20425;-64
2022/10/31 01:19:57;;;;;;;16.02;10.95;;;12.40;99.90;;;;;;4954287;29;20122;-63
2022/10/31 01:22:23;;;;;;;20.67;11.20;;;12.40;99.90;;;;;;4954606;29;20075;-64
2022/10/31 01:24:48;;;;;;;18.70;10.15;;;12.30;99.90;;;;;;4954932;29;20098;-64
2022/10/31 01:27:14;;;;;;;21.80;11.52;;;12.10;99.90;;;;;;4938522;29;20050;-65
2022/10/31 01:29:39;;;;;;;19.15;10.98;;;12.10;99.90;;;;;;4938048;29;20047;-64
2022/10/31 01:32:05;;;;;;;20.52;11.10;;;;;;;;;;4937461;29;20039;-64
2022/10/31 01:34:31;;;;;;;18.15;9.65;;;12.10;99.90;;;;;;4937147;29;20178;-64
2022/10/31 01:36:56;;;;;;;22.50;10.43;;;12.10;99.90;;;;;;4954361;29;20122;-64
2022/10/31 01:39:22;;;;;;;18.27;11.05;;;12.10;99.90;;;;;;4936524;29;20486;-64
2022/10/31 01:41:50;;;;;;;21.40;11.32;;;12.10;99.90;;;;;;4938067;29;20367;-65
2022/10/31 01:44:16;;;;;;;18.08;10.68;;;12.00;99.90;;;;;;4937978;29;20031;-64
2022/10/31 01:46:47;;;;;;;20.25;11.13;;;12.10;99.90;;;;;;4937661;29;20044;-64
2022/10/31 01:49:17;;;;;;;15.00;10.70;;;12.00;99.90;;;;;;4936162;29;20070;-64
2022/10/31 01:51:51;;;;;;;19.25;10.85;;;12.10;99.90;;;;;;4954651;29;20411;-64
2022/10/31 01:54:20;;;;;;;24.90;11.38;;;12.00;99.90;;;;;;4954159;29;20379;-64
2022/10/31 01:56:50;;;;;;;20.00;12.13;;;11.90;99.90;;;;;;4937466;29;20142;-64
2022/10/31 01:59:20;;;;;;;20.75;11.98;;;11.90;99.90;;;;;;4937415;29;20079;-64
2022/10/31 02:01:49;;;;;;;19.33;12.60;;;12.00;99.90;;;;;;4954692;29;20039;-64
2022/10/31 02:04:15;;;;;;;21.80;11.32;;;11.90;99.90;;;;;;4951182;29;20119;-64
2022/10/31 02:06:46;;;;;;;22.73;10.70;;;11.90;99.90;;;;;;4937634;29;20043;-64
2022/10/31 02:09:13;;;;;;;21.98;10.70;;;11.80;99.90;;;;;;4935816;29;20051;-64
2022/10/31 02:11:40;;;;;;;18.38;11.32;;;11.70;99.90;;;;;;4937654;29;20047;-64
2022/10/31 02:14:06;;;;;;;22.08;11.57;;;11.80;99.90;;;;;;4936860;29;20104;-65
2022/10/31 02:16:32;;;;;;;17.35;11.85;;;11.90;99.90;;;;;;4941761;29;20043;-64
2022/10/31 02:18:57;;;;;;;17.90;11.20;;;11.80;99.90;;;;;;4954688;29;20402;-63
2022/10/31 02:22:00;;;;;;;19.85;11.55;;;11.60;99.90;;;;;;4936454;29;20035;-64
2022/10/31 02:24:44;;;;;;;26.08;12.20;;;11.70;99.90;;;;;;4948581;29;20468;-64
2022/10/31 02:27:41;;;;;;;19.35;9.85;;;11.70;99.90;;;;;;4925899;29;20122;-63
2022/10/31 02:30:15;;;;;;;12.38;8.48;;;11.70;99.90;;;;;;4953136;29;20032;-64
2022/10/31 02:32:52;;;;;;;10.95;7.22;;;11.50;99.90;;;;;;4937352;29;20102;-64
2022/10/31 02:35:36;;;;;;;10.95;6.28;;;11.20;99.90;;;;;;4937159;29;20042;-64
2022/10/31 02:38:25;;;;;;;10.52;6.13;;;11.30;99.90;;;;;;4937128;29;20048;-64
2022/10/31 02:41:00;;;;;;;15.52;9.45;;;11.30;99.90;;;;;;4925781;29;20043;-64
2022/10/31 02:44:01;;;;;;;10.80;7.53;;;11.30;99.90;;;;;;4954309;29;20043;-63
2022/10/31 02:46:49;;;;;;;20.67;10.48;;;11.20;99.90;;;;;;4944272;29;20389;-64
2022/10/31 02:49:26;;;;;;;11.93;8.30;;;11.40;99.90;;;;;;4942090;29;20062;-64
2022/10/31 02:51:52;;;;;;;15.23;10.18;;;11.50;99.90;;;;;;4936221;29;20130;-64
2022/10/31 02:54:19;;;;;;;14.30;10.02;;;11.50;99.90;;;;;;4954308;29;20118;-64
2022/10/31 02:56:47;;;;;;;17.60;10.05;;;11.30;99.90;;;;;;4954120;29;20107;-64
2022/10/31 02:59:13;;;;;;;14.55;9.52;;;11.30;99.90;;;;;;4936902;29;20383;-64
2022/10/31 03:01:59;;;;;;;13.82;9.13;;;11.40;99.90;;;;;;4937257;29;20090;-63
2022/10/31 03:04:38;;;;;;;21.02;12.05;;;11.30;99.90;;;;;;4942497;29;20401;-64
2022/10/31 03:07:20;;;;;;;15.68;11.98;;;11.40;99.90;;;;;;4953636;29;20039;-64
2022/10/31 03:10:00;;;;;;;15.52;10.57;;;11.30;99.90;;;;;;4953105;29;20557;-63
2022/10/31 03:12:30;;;;;;;20.75;12.77;;;11.30;99.90;;;;;;4937106;29;20039;-64
2022/10/31 03:15:08;;;;;;;13.35;8.68;;;11.30;99.90;;;;;;4938137;29;20039;-64
2022/10/31 03:17:37;;;;;;;17.92;11.27;;;11.20;99.90;;;;;;4940226;29;20086;-64
2022/10/31 03:20:06;;;;;;;18.40;10.80;;;11.10;99.90;;;;;;4957559;29;20438;-64
2022/10/31 03:22:32;;;;;;;18.17;11.38;;;11.20;99.90;;;;;;4938380;29;20046;-64
2022/10/31 03:25:02;;;;;;;20.05;11.50;;;11.10;99.90;;;;;;4956456;29;20039;-64
2022/10/31 03:27:32;;;;;;;16.55;10.98;;;11.30;99.90;;;;;;4940235;29;20051;-64
2022/10/31 03:30:01;;;;;;;16.70;10.00;;;11.50;99.90;;;;;;4957480;29;20405;-63
2022/10/31 03:32:42;;;;;;;18.77;10.50;;;11.30;99.90;;;;;;4957042;29;20419;-63
2022/10/31 03:35:09;;;;;;;19.35;11.48;;;11.20;99.90;;;;;;4940053;29;20043;-64
2022/10/31 03:37:37;;;;;;;21.08;11.07;;;11.10;99.90;;;;;;4954624;29;20038;-64
2022/10/31 03:40:07;;;;;;;16.42;11.63;;;11.00;99.90;;;;;;4952627;29;20039;-64
2022/10/31 03:42:38;;;;;;;20.38;12.02;;;11.20;99.90;;;;;;4938597;29;20503;-63
2022/10/31 03:45:26;;;;;;;16.50;11.43;;;11.30;99.90;;;;;;4939817;29;20047;-63
2022/10/31 03:47:53;;;;;;;18.17;11.95;;;10.90;99.90;;;;;;4939780;29;20047;-63
2022/10/31 03:50:19;;;;;;;16.20;11.80;;;11.00;99.90;;;;;;4956771;29;20498;-64
2022/10/31 03:53:11;;;;;;;20.35;12.63;;;10.90;99.90;;;;;;4938483;29;20054;-64
2022/10/31 03:55:47;;;;;;;15.68;11.32;;;10.80;99.90;;;;;;4956595;29;20134;-65
2022/10/31 03:58:21;;;;;;;18.70;11.73;;;11.00;99.90;;;;;;4939115;29;20441;-63
2022/10/31 04:00:50;;;;;;;22.08;11.63;;;11.10;99.90;;;;;;4956796;29;20039;-64
2022/10/31 04:03:22;;;;;;;25.25;13.10;;;11.00;99.90;;;;;;4939597;29;20126;-63
2022/10/31 04:05:51;;;;;;;18.42;11.18;;;11.00;99.90;;;;;;4954666;29;20485;-64
2022/10/31 04:08:21;;;;;;;20.20;12.48;;;11.10;99.90;;;;;;4939265;29;20050;-64
2022/10/31 04:10:48;;;;;;;15.40;10.90;;;11.00;99.90;;;;;;4955618;29;20043;-64
2022/10/31 04:13:19;;;;;;;15.52;9.15;;;11.00;99.90;;;;;;4956465;29;20039;-64
2022/10/31 04:15:45;;;;;;;18.17;10.48;;;11.10;99.90;;;;;;4939059;29;20044;-64
2022/10/31 04:18:11;;;;;;;17.15;11.63;;;10.90;99.90;;;;;;4956589;29;20119;-63
2022/10/31 04:20:39;;;;;;;19.40;11.65;;;10.90;99.90;;;;;;4955436;29;20121;-63
2022/10/31 04:23:11;;;;;;;12.73;8.57;;;10.90;99.90;;;;;;4942022;29;20131;-63
2022/10/31 04:25:36;;;;;;;14.63;10.10;;;10.80;99.90;;;;;;4947718;29;20516;-64
2022/10/31 04:28:02;;;;;;;19.33;11.20;;;10.80;99.90;;;;;;4934287;29;20129;-64
2022/10/31 04:30:27;;;;;;;19.02;10.73;;;10.80;99.90;;;;;;4955683;29;20127;-64
2022/10/31 04:32:53;;;;;;;14.73;10.13;;;10.60;99.90;;;;;;4938920;29;20058;-63
2022/10/31 04:35:19;;;;;;;16.30;9.45;;;;;;;;;;4955163;29;20148;-64
2022/10/31 04:37:44;;;;;;;18.73;11.18;;;10.70;99.90;;;;;;4955989;29;20130;-63
2022/10/31 04:40:10;;;;;;;15.60;10.43;;;10.60;99.90;;;;;;4938713;29;20039;-64
2022/10/31 04:42:36;;;;;;;13.70;9.15;;;10.70;99.90;;;;;;4938793;29;20047;-64
2022/10/31 04:45:01;;;;;;;15.13;10.18;;;10.80;99.90;;;;;;4955011;29;20039;-64
2022/10/31 04:47:27;;;;;;;9.70;7.18;;;10.70;99.90;;;;;;4956042;29;20039;-63
2022/10/31 04:49:52;;;;;;;10.55;6.68;;;10.50;99.90;;;;;;4937331;29;20043;-64
2022/10/31 04:52:18;;;;;;;10.15;6.40;;;10.30;99.90;;;;;;4955579;29;20093;-64
2022/10/31 04:54:43;;;;;;;8.82;6.72;;;10.40;99.90;;;;;;4938683;29;20051;-64
2022/10/31 04:57:09;;;;;;;8.85;5.28;;;10.20;99.90;;;;;;4955532;29;20101;-63
2022/10/31 04:59:35;;;;;;;7.18;4.78;;;10.20;99.90;;;;;;4938015;29;20078;-64
2022/10/31 05:02:00;;;;;;;8.48;5.03;;;10.20;99.90;;;;;;4937832;29;20043;-64
2022/10/31 05:04:26;;;;;;;9.40;6.00;;;10.00;99.90;;;;;;4937522;29;20051;-63
2022/10/31 05:06:51;;;;;;;12.50;6.30;;;10.20;99.90;;;;;;4938271;29;20057;-64
2022/10/31 05:09:17;;;;;;;8.32;5.43;;;10.10;99.90;;;;;;4942462;29;20039;-64
2022/10/31 05:11:42;;;;;;;13.18;7.90;;;10.00;99.90;;;;;;4955660;29;20129;-63
2022/10/31 05:14:08;;;;;;;13.65;8.32;;;10.10;99.90;;;;;;4938325;29;20046;-64
2022/10/31 05:16:33;;;;;;;21.60;11.65;;;10.10;99.90;;;;;;4955660;29;20054;-63
2022/10/31 05:18:59;;;;;;;18.92;11.85;;;;;;;;;;4955478;29;20494;-64
2022/10/31 05:21:25;;;;;;;16.90;11.60;;;;;;;;;;4955168;29;20071;-64
2022/10/31 05:23:52;;;;;;;17.08;11.13;;;;;;;;;;4951021;29;20035;-64
2022/10/31 05:26:17;;;;;;;19.40;13.48;;;10.30;99.90;;;;;;4955311;29;20389;-64
2022/10/31 05:28:43;;;;;;;23.73;13.77;;;10.30;99.90;;;;;;4955180;29;20046;-64
2022/10/31 05:31:08;;;;;;;15.02;9.77;;;10.30;99.90;;;;;;4955138;29;20039;-63
2022/10/31 05:33:34;;;;;;;11.63;8.50;;;10.30;99.90;;;;;;4937597;29;20383;-65
2022/10/31 05:35:59;;;;;;;11.90;8.70;;;10.10;99.90;;;;;;4937866;29;20379;-64
2022/10/31 05:38:25;;;;;;;18.85;12.88;;;10.20;99.90;;;;;;4953327;28;20464;-64
2022/10/31 05:40:57;;;;;;;12.13;9.18;;;10.20;99.90;;;;;;4937486;29;20404;-63
2022/10/31 05:43:23;;;;;;;10.80;7.38;;;10.20;99.90;;;;;;4937694;29;20494;-64
2022/10/31 05:45:52;;;;;;;13.13;8.63;;;10.30;99.90;;;;;;4955201;29;20050;-64
2022/10/31 05:48:18;;;;;;;12.13;9.45;;;10.20;99.90;;;;;;4954879;29;20071;-64
2022/10/31 05:50:43;;;;;;;13.80;8.52;;;10.10;99.90;;;;;;4952931;29;20031;-64
2022/10/31 05:53:09;;;;;;;9.43;7.38;;;10.20;99.90;;;;;;4954080;29;20047;-64
2022/10/31 05:55:35;;;;;;;8.98;7.45;;;10.00;99.90;;;;;;4954579;28;20059;-63
2022/10/31 05:58:00;;;;;;;10.55;6.25;;;10.20;99.90;;;;;;4937630;29;20046;-64
2022/10/31 06:00:27;;;;;;;9.65;6.97;;;9.90;99.90;;;;;;4954780;29;20038;-64
2022/10/31 06:03:00;;;;;;;10.15;7.60;;;9.80;99.90;;;;;;4952189;29;20071;-64
2022/10/31 06:05:26;;;;;;;15.73;8.82;;;9.80;99.90;;;;;;4953543;29;20537;-63
2022/10/31 06:07:51;;;;;;;23.45;7.57;;;9.80;99.90;;;;;;4937528;29;20114;-64
2022/10/31 06:10:19;;;;;;;9.13;6.70;;;9.70;99.90;;;;;;4954820;29;20125;-64
2022/10/31 06:12:44;;;;;;;11.85;7.45;;;9.90;99.90;;;;;;4937051;29;20043;-64
2022/10/31 06:15:10;;;;;;;13.20;6.65;;;9.70;99.90;;;;;;4954647;29;20039;-64
2022/10/31 06:17:36;;;;;;;16.73;9.85;;;9.80;99.90;;;;;;4936151;29;20533;-64
2022/10/31 06:20:02;;;;;;;11.32;8.52;;;9.80;99.90;;;;;;4935075;29;20401;-64
2022/10/31 06:22:28;;;;;;;14.02;9.82;;;9.90;99.90;;;;;;4954566;29;20542;-64
2022/10/31 06:24:53;;;;;;;14.63;9.18;;;9.90;99.90;;;;;;4936635;29;20126;-63
2022/10/31 06:27:19;;;;;;;12.98;9.23;;;9.70;99.90;;;;;;4953477;29;20046;-64
2022/10/31 06:29:45;;;;;;;13.25;9.77;;;9.80;99.90;;;;;;4946825;29;20032;-64
2022/10/31 06:32:12;;;;;;;20.15;12.18;;;9.80;99.90;;;;;;4929969;29;20500;-64
2022/10/31 06:34:38;;;;;;;18.77;11.73;;;10.00;99.90;;;;;;4928740;29;20039;-64
2022/10/31 06:37:07;;;;;;;23.42;12.20;;;9.90;99.90;;;;;;4932238;29;20031;-63
2022/10/31 06:39:32;;;;;;;17.48;11.63;;;9.90;99.90;;;;;;4935524;28;20047;-63
2022/10/31 06:41:58;;;;;;;16.67;12.95;;;10.00;99.90;;;;;;4955981;28;20097;-63
2022/10/31 06:44:24;;;;;;;24.02;14.05;;;;;;;;;;4954216;28;20065;-63
2022/10/31 06:46:49;;;;;;;22.83;13.93;;;10.10;99.90;;;;;;4936563;29;20054;-63
2022/10/31 06:49:15;;;;;;;21.85;13.57;;;10.10;99.90;;;;;;4952995;28;20038;-63
2022/10/31 06:51:41;;;;;;;22.70;13.27;;;;;;;;;;4958089;29;20371;-66
2022/10/31 06:54:06;;;;;;;22.55;14.38;;;10.20;99.90;;;;;;4957761;29;20195;-63
2022/10/31 06:56:32;;;;;;;15.00;10.07;;;9.90;99.90;;;;;;4957619;29;20055;-63
2022/10/31 06:58:57;;;;;;;13.65;10.77;;;9.90;99.90;;;;;;4940671;29;20130;-63
2022/10/31 07:01:23;;;;;;;10.80;8.48;;;9.80;99.90;;;;;;4939530;29;20502;-64
2022/10/31 07:03:49;;;;;;;13.75;9.90;;;9.70;99.90;;;;;;4939224;29;20047;-63
2022/10/31 07:06:14;;;;;;;16.08;10.57;;;9.80;99.90;;;;;;4957716;29;20046;-64
2022/10/31 07:08:40;;;;;;;15.95;11.00;;;10.00;99.90;;;;;;4940523;29;20051;-63
2022/10/31 07:11:05;;;;;;;16.75;11.15;;;9.90;99.90;;;;;;4936468;29;20039;-63
2022/10/31 07:13:31;;;;;;;15.60;10.35;;;10.00;99.90;;;;;;4956967;28;20122;-64
2022/10/31 07:16:01;;;;;;;18.30;12.52;;;10.10;99.90;;;;;;4934067;29;20047;-64
2022/10/31 07:18:27;;;;;;;19.20;11.90;;;;;;;;;;4939958;29;20047;-64
2022/10/31 07:20:53;;;;;;;18.55;12.20;;;10.00;99.90;;;;;;4940395;29;20567;-64
2022/10/31 07:23:19;;;;;;;17.30;11.68;;;10.20;99.90;;;;;;4940420;29;20093;-64
2022/10/31 07:25:45;;;;;;;19.80;12.27;;;10.00;99.90;;;;;;4940376;29;20143;-64
2022/10/31 07:28:10;;;;;;;20.50;12.93;;;10.40;99.90;;;;;;4940053;29;20055;-64
2022/10/31 07:30:37;;;;;;;15.43;12.07;;;10.50;99.90;;;;;;4939570;29;20051;-64
2022/10/31 07:33:03;;;;;;;19.27;13.95;;;10.40;99.90;;;;;;4956341;29;20055;-64
2022/10/31 07:35:29;;;;;;;20.30;13.45;;;10.50;99.90;;;;;;4956958;28;20036;-64
2022/10/31 07:37:55;;;;;;;18.55;12.65;;;10.60;99.90;;;;;;4939613;28;20043;-64
2022/10/31 07:40:22;;;;;;;20.73;12.43;;;10.70;99.90;;;;;;4939272;28;20050;-64
2022/10/31 07:42:49;;;;;;;18.27;13.25;;;10.80;99.90;;;;;;4939343;28;20054;-64
2022/10/31 07:45:20;;;;;;;18.15;12.35;;;10.80;99.90;;;;;;4953323;28;20044;-64
2022/10/31 07:47:48;;;;;;;20.75;13.38;;;10.80;99.90;;;;;;4950061;29;20044;-64
2022/10/31 07:50:19;;;;;;;20.98;14.35;;;10.90;99.90;;;;;;4939627;29;20035;-63
2022/10/31 07:52:44;;;;;;;18.17;13.10;;;10.90;99.90;;;;;;4938804;29;20486;-63
2022/10/31 07:55:10;;;;;;;17.42;13.43;;;10.90;99.90;;;;;;4956773;29;20110;-64
2022/10/31 07:57:36;;;;;;;19.52;14.25;;;11.00;99.90;;;;;;4956633;29;20168;-64
2022/10/31 08:00:07;;;;;;;18.50;12.85;;;11.20;99.90;;;;;;4939007;29;20467;-64
2022/10/31 08:02:33;;;;;;;17.55;13.18;;;11.60;99.90;;;;;;4938368;28;20545;-64
2022/10/31 08:04:59;;;;;;;22.80;14.20;;;11.50;99.90;;;;;;4954829;28;20118;-64
2022/10/31 08:07:25;;;;;;;21.30;13.25;;;11.60;99.90;;;;;;4939404;29;20043;-64
2022/10/31 08:09:51;;;;;;;18.67;13.63;;;11.70;99.90;;;;;;4956564;29;20576;-64
2022/10/31 08:12:17;;;;;;;21.20;14.90;;;11.80;99.90;;;;;;4955148;29;20513;-64
2022/10/31 08:14:44;;;;;;;23.02;15.02;;;11.90;99.90;;;;;;4951489;29;20039;-64
2022/10/31 08:17:09;;;;;;;22.67;14.52;;;11.90;99.90;;;;;;4938535;29;20086;-64
2022/10/31 08:19:35;;;;;;;19.92;13.98;;;12.00;99.90;;;;;;4956023;29;20039;-64
2022/10/31 08:22:01;;;;;;;21.00;13.73;;;;;;;;;;4933334;28;20047;-65
2022/10/31 08:24:26;;;;;;;17.10;13.25;;;12.30;99.90;;;;;;4949269;28;20031;-64
2022/10/31 08:26:52;;;;;;;20.95;14.05;;;12.40;99.90;;;;;;4933523;29;20478;-63
2022/10/31 08:29:18;;;;;;;20.20;12.30;;;12.70;99.90;;;;;;4949011;28;20039;-63
2022/10/31 08:31:43;;;;;;;17.95;13.07;;;12.80;99.90;;;;;;4951455;28;20043;-64
2022/10/31 08:34:09;;;;;;;17.92;11.80;;;12.90;99.90;;;;;;4937375;29;20494;-64
2022/10/31 08:36:35;;;;;;;15.73;11.98;;;13.00;99.90;;;;;;4954256;28;20113;-64
2022/10/31 08:39:01;;;;;;;17.92;12.55;;;13.20;99.90;;;;;;4935418;29;20579;-64
2022/10/31 08:41:27;;;;;;;17.92;11.60;;;;;;;;;;4955267;28;20047;-65
2022/10/31 08:43:53;;;;;;;15.88;10.88;;;14.40;99.90;;;;;;4948856;28;20078;-63
2022/10/31 08:46:18;;;;;;;15.50;11.15;;;15.30;99.90;;;;;;4938287;29;20058;-63
2022/10/31 08:48:44;;;;;;;12.60;10.15;;;16.70;99.90;;;;;;4934885;29;20039;-63
2022/10/31 08:51:11;;;;;;;13.70;9.65;;;17.90;99.90;;;;;;4934360;28;20110;-64
2022/10/31 08:53:37;;;;;;;13.45;10.15;;;18.10;99.90;;;;;;4955663;29;20098;-65
2022/10/31 08:56:02;;;;;;;13.80;8.63;;;18.20;99.90;;;;;;4954971;29;20047;-64
2022/10/31 08:58:28;;;;;;;12.02;8.77;;;18.20;99.90;;;;;;4954169;28;20047;-64
2022/10/31 09:00:56;;;;;;;13.95;9.27;;;17.90;99.90;;;;;;4938253;29;20039;-64
2022/10/31 09:03:26;;;;;;;15.95;9.23;;;18.30;99.90;;;;;;4953055;28;20515;-64
2022/10/31 09:05:57;;;;;;;14.82;9.70;;;19.00;99.90;;;;;;4937801;28;20237;-65
2022/10/31 09:08:23;;;;;;;13.20;9.48;;;19.40;99.90;;;;;;4954723;28;20049;-64
2022/10/31 09:10:48;;;;;;;14.68;10.20;;;19.80;99.90;;;;;;4935107;29;20039;-65
2022/10/31 09:13:19;;;;;;;13.93;9.18;;;20.50;99.90;;;;;;4915957;29;20047;-64
2022/10/31 09:15:47;;;;;;;15.98;10.43;;;19.40;99.90;;;;;;4938018;29;20493;-64
2022/10/31 09:18:15;;;;;;;14.77;10.20;;;18.70;99.90;;;;;;4955298;29;20046;-63
2022/10/31 09:20:42;;;;;;;15.43;11.05;;;17.10;99.90;;;;;;4954471;29;20046;-64
2022/10/31 09:23:16;;;;;;;19.50;12.20;;;16.40;99.90;;;;;;4955442;29;20078;-64
2022/10/31 09:25:42;;;;;;;16.70;11.38;;;16.00;99.90;;;;;;4937240;29;20055;-64
2022/10/31 09:28:11;;;;;;;16.13;11.90;;;16.00;99.90;;;;;;4937806;29;20130;-62
2022/10/31 09:30:37;;;;;;;18.92;12.73;;;15.20;99.90;;;;;;4933186;29;20093;-62
2022/10/31 09:33:05;;;;;;;20.35;13.95;;;14.90;99.90;;;;;;4954388;28;20086;-61
2022/10/31 09:35:31;;;;;;;20.45;14.18;;;14.60;99.90;;;;;;4937649;29;20323;-60
2022/10/31 09:37:57;;;;;;;19.58;13.55;;;14.60;99.90;;;;;;4955177;29;20034;-62
2022/10/31 09:40:38;;;;;;;21.80;14.25;;;14.30;99.90;;;;;;4953129;29;20050;-62
2022/10/31 09:43:12;;;;;;;19.40;15.02;;;14.10;99.90;;;;;;4955016;29;20047;-62
2022/10/31 09:46:17;;;;;;;24.57;16.23;;;14.30;99.90;;;;;;4937612;29;20054;-62
2022/10/31 09:49:18;;;;;;;23.70;15.48;;;14.40;99.90;;;;;;4937867;29;20043;-62
2022/10/31 09:51:50;;;;;;;20.95;14.77;;;14.50;99.90;;;;;;4951211;28;20036;-62
2022/10/31 09:54:20;;;;;;;25.58;14.85;;;14.40;99.90;;;;;;4952257;28;20055;-62
2022/10/31 09:56:45;;;;;;;22.63;15.07;;;14.50;99.90;;;;;;4937559;29;20051;-61
2022/10/31 09:59:24;;;;;;;22.40;16.17;;;14.60;99.90;;;;;;4954910;29;20050;-63
2022/10/31 10:01:59;;;;;;;24.33;15.95;;;14.60;99.90;;;;;;4955002;29;20074;-64
2022/10/31 10:04:50;;;;;;;22.17;14.43;;;14.40;99.90;;;;;;4947785;28;20050;-67
2022/10/31 10:07:34;;;;;;;24.17;15.05;;;14.30;99.90;;;;;;4922721;28;20047;-64
2022/10/31 10:10:02;;;;;;;25.30;16.60;;;14.40;99.90;;;;;;4932653;28;20042;-65
2022/10/31 10:12:36;;;;;;;23.05;15.90;;;14.30;99.90;;;;;;4952519;28;20494;-63
2022/10/31 10:15:36;;;;;;;21.67;15.30;;;14.60;99.90;;;;;;4935429;29;20497;-63
2022/10/31 10:18:36;;;;;;;24.83;15.50;;;14.30;99.90;;;;;;4933841;29;20442;-64
2022/10/31 10:21:31;;;;;;;22.67;15.45;;;14.30;99.90;;;;;;4952047;29;20035;-64
2022/10/31 10:24:21;;;;;;;22.42;14.40;;;14.30;99.90;;;;;;4954200;28;20043;-64
2022/10/31 10:27:01;;;;;;;22.15;14.25;;;14.30;99.90;;;;;;4959356;28;20047;-64
2022/10/31 10:29:37;;;;;;;21.83;14.35;;;14.40;99.90;;;;;;4940310;28;20058;-63
2022/10/31 10:32:17;;;;;;;21.63;14.70;;;14.30;99.90;;;;;;4939349;28;20078;-63
2022/10/31 10:34:59;;;;;;;22.17;14.60;;;14.30;99.90;;;;;;4955194;28;20048;-64
2022/10/31 10:37:35;;;;;;;22.30;14.77;;;14.40;99.90;;;;;;4955855;28;20047;-63
2022/10/31 10:40:28;;;;;;;20.75;13.60;;;14.30;99.90;;;;;;4956329;28;20445;-63
2022/10/31 10:49:28;;;;;;;21.05;13.57;;;14.50;99.90;;;;;;4928167;28;20047;-63
2022/10/31 10:52:39;;;;;;;21.25;13.32;;;14.30;99.90;;;;;;4939532;28;20506;-63
2022/10/31 10:55:22;;;;;;;23.08;13.63;;;14.30;99.90;;;;;;4938746;28;20043;-64
2022/10/31 10:58:04;;;;;;;20.33;13.48;;;14.20;99.90;;;;;;4938435;28;20050;-64
2022/10/31 11:00:29;;;;;;;20.40;13.85;;;;;;;;;;4953429;28;20374;-64
2022/10/31 11:02:55;;;;;;;22.55;12.52;;;14.40;99.90;;;;;;4955252;28;20042;-64
2022/10/31 11:05:24;;;;;;;20.60;14.25;;;14.40;99.90;;;;;;4956715;28;20115;-64
2022/10/31 11:07:49;;;;;;;23.67;13.90;;;14.40;99.90;;;;;;4933163;29;20114;-64
2022/10/31 11:10:16;;;;;;;26.90;15.48;;;14.40;99.90;;;;;;4933905;29;20468;-65
2022/10/31 11:12:44;;;;;;;28.25;14.60;;;14.30;99.90;;;;;;4951301;29;20040;-64
2022/10/31 11:15:23;;;;;;;24.50;14.50;;;14.30;99.90;;;;;;4949934;29;20031;-64
2022/10/31 11:17:55;;;;;;;22.65;14.82;;;14.30;99.90;;;;;;4938932;29;20049;-64
2022/10/31 11:20:24;;;;;;;27.25;15.75;;;14.30;99.90;;;;;;4956985;29;20067;-64
2022/10/31 11:23:00;;;;;;;22.63;14.55;;;14.40;99.90;;;;;;4956649;29;20086;-63
2022/10/31 11:25:26;;;;;;;24.20;16.13;;;14.30;99.90;;;;;;4955906;28;20049;-63
2022/10/31 11:28:04;;;;;;;24.08;13.75;;;14.50;99.90;;;;;;4939557;29;20046;-63
2022/10/31 11:30:30;;;;;;;21.60;14.18;;;14.30;99.90;;;;;;4954970;29;20046;-63
2022/10/31 11:32:56;;;;;;;23.95;15.05;;;14.40;99.90;;;;;;4939463;29;20114;-63
2022/10/31 11:35:24;;;;;;;21.33;15.10;;;14.50;99.90;;;;;;4947202;28;20051;-63
2022/10/31 11:37:53;;;;;;;23.95;14.23;;;14.50;99.90;;;;;;4953991;28;20031;-63
2022/10/31 11:40:28;;;;;;;19.15;14.38;;;14.70;99.90;;;;;;4958788;28;20039;-64
2022/10/31 11:42:58;;;;;;;22.77;15.02;;;14.70;99.90;;;;;;4954137;28;20565;-64
2022/10/31 11:45:29;;;;;;;24.33;15.05;;;14.70;99.90;;;;;;4939051;29;20043;-64
2022/10/31 11:47:56;;;;;;;21.27;14.00;;;14.70;99.90;;;;;;4955469;29;20461;-64
2022/10/31 11:50:35;;;;;;;21.67;14.10;;;14.80;99.90;;;;;;4935778;29;20043;-63
2022/10/31 11:53:02;;;;;;;25.48;15.02;;;14.80;99.90;;;;;;4948242;29;20091;-63
2022/10/31 11:55:37;;;;;;;23.92;14.30;;;14.90;99.90;;;;;;4956593;29;20055;-63
2022/10/31 11:58:03;;;;;;;;;;;15.10;99.90;;;;;;4954633;28;20114;-63
2022/10/31 12:00:30;;;;;;;22.50;13.15;;;13.60;99.90;;;;;;4939296;28;19941;-63
2022/10/31 12:03:23;;;;;;;22.00;13.13;;;15.10;99.90;;;;;;4956541;28;20047;-63
2022/10/31 12:06:00;;;;;;;21.70;12.82;;;15.20;99.90;;;;;;4935238;28;20050;-62
2022/10/31 12:08:31;;;;;;;19.58;12.90;;;15.20;99.90;;;;;;4939543;28;20051;-64
2022/10/31 12:11:05;;;;;;;18.48;12.13;;;15.10;99.90;;;;;;4953853;28;20047;-65
2022/10/31 12:13:31;;;;;;;18.45;11.95;;;15.00;99.90;;;;;;4938724;28;20039;-64
2022/10/31 12:16:08;;;;;;;19.00;11.50;;;15.20;99.90;;;;;;4955354;28;20414;-65
2022/10/31 12:19:00;;;;;;;18.70;12.13;;;15.20;99.90;;;;;;4953289;28;20039;-65
2022/10/31 12:21:50;;;;;;;20.73;11.77;;;15.20;99.90;;;;;;4937799;28;20054;-65
2022/10/31 12:24:39;;;;;;;19.42;11.73;;;15.30;99.90;;;;;;4937373;28;20087;-64
2022/10/31 12:27:42;;;;;;;18.95;11.63;;;15.30;99.90;;;;;;4952333;28;20038;-65
2022/10/31 12:30:19;;;;;;;22.08;10.57;;;15.50;99.90;;;;;;4937166;28;20109;-64
2022/10/31 12:32:47;;;;;;;16.75;10.02;;;15.50;99.90;;;;;;4954216;28;20035;-65
2022/10/31 12:35:41;;;;;;;12.93;8.88;;;15.40;99.90;;;;;;4937683;28;20040;-65
2022/10/31 12:38:32;;;;;;;17.98;9.05;;;15.80;99.90;;;;;;4937351;28;20043;-64
2022/10/31 12:41:10;;;;;;;16.42;10.30;;;15.80;99.90;;;;;;4936426;28;20130;-64
2022/10/31 12:43:36;;;;;;;18.15;9.15;;;;;;;;;;4954445;28;20043;-64
2022/10/31 12:46:05;;;;;;;13.75;7.75;;;15.70;99.90;;;;;;4937394;28;20043;-65
2022/10/31 12:48:53;;;;;;;13.27;8.00;;;15.60;99.90;;;;;;4949531;28;20510;-64
2022/10/31 12:51:33;;;;;;;15.90;7.80;;;15.80;99.90;;;;;;4938355;29;20053;-64
2022/10/31 12:54:09;;;;;;;12.35;6.38;;;16.00;99.90;;;;;;4953893;28;20035;-64
2022/10/31 12:56:35;;;;;;;13.55;7.53;;;15.70;99.90;;;;;;4918459;28;20142;-64
2022/10/31 12:59:42;;;;;;;10.27;6.55;;;15.80;99.90;;;;;;4934159;29;20118;-64